Wilson Gaeta — 8PTS — position and weather

sailwx.info

Track history (hours):
 
Tides and Currents Weather Stations Pressure Air Temp Water Temp Dewpoint Dewpoint Depression Visibility Wind Speed Wind Dir Waves Ship Positions

Wilson Gaeta

Last reported at 2015-Aug-27 19:30 UTC. Time now 2015-Aug-28 07:34 UTC.
Position N 59°38' E 010°25'.

Length 88 m; draft 5.6 m.

Type: Cargo ship. MMSI: 314237000.

Date/timePositionNaut miles runAvg speedWind from/ knotsBaromVisibWave heightAir tempDewpointWater temp
2015-Aug-27 19:30N 59°38' E 010°25'8 8.6
2015-Aug-27 18:33N 59°30' E 010°26'1010.0
2015-Aug-27 17:33N 59°21' E 010°35'1110.6
2015-Aug-27 16:33N 59°11' E 010°39'9 8.7
2015-Aug-27 15:33N 59°03' E 010°34'8 8.1
2015-Aug-27 14:33N 58°55' E 010°29'325 9.8
2015-Aug-26 05:28N 54°17' E 005°20'9 9.6
2015-Aug-26 04:33N 54°10' E 005°12'9 9.4
2015-Aug-26 03:33N 54°01' E 005°06'10 9.5
2015-Aug-26 02:33N 53°52' E 005°00'59 9.8
2015-Aug-25 20:32N 52°58' E 004°20'13 8.7
2015-Aug-25 19:05N 52°47' E 004°09'88 9.3
2015-Aug-25 09:32N 51°41' E 002°33'1010.6
2015-Aug-25 08:33N 51°33' E 002°22'1010.4
2015-Aug-25 07:33N 51°25' E 002°13'1010.3
2015-Aug-25 06:34N 51°16' E 002°05'1010.3
2015-Aug-25 05:33N 51°10' E 001°52'1010.0
2015-Aug-25 04:34N 51°03' E 001°41'10 9.6
2015-Aug-25 03:33N 50°55' E 001°31'9 8.7
2015-Aug-25 02:33N 50°47' E 001°25'  
2015-Aug-21 00:21N 41°12' W 008°41'0 0.0
2015-Aug-20 23:33N 41°12' W 008°41'0 0.0
2015-Aug-20 22:15N 41°12' W 008°41'0 0.0
2015-Aug-20 21:27N 41°12' W 008°41'0 0.0
2015-Aug-20 20:09N 41°12' W 008°41'0 0.0
2015-Aug-20 16:33N 41°12' W 008°41'0 0.0
2015-Aug-20 15:21N 41°12' W 008°41'0 0.0
2015-Aug-20 09:15N 41°12' W 008°41'0 0.0
2015-Aug-20 08:27N 41°12' W 008°41'0 0.0
2015-Aug-20 07:33N 41°12' W 008°41'0 0.0
2015-Aug-20 06:33N 41°12' W 008°41'0 0.0
2015-Aug-20 05:33N 41°12' W 008°41'0 0.0
2015-Aug-20 04:33N 41°12' W 008°41'0 0.0
2015-Aug-20 02:15N 41°12' W 008°41'0 0.0
2015-Aug-20 01:33N 41°12' W 008°41'0 0.0
2015-Aug-20 00:33N 41°12' W 008°41'0 0.0
2015-Aug-19 23:33N 41°12' W 008°41'0 0.0
2015-Aug-19 22:33N 41°12' W 008°41'10 5.2
2015-Aug-19 20:33N 41°13' W 008°55'9 8.9
2015-Aug-19 19:33N 41°19' W 009°04'9 9.1
2015-Aug-19 18:33N 41°27' W 009°11'10 9.6
2015-Aug-19 17:33N 41°35' W 009°16'  
Track history (hours):
 
Tides and Currents Weather Stations Pressure Air Temp Water Temp Dewpoint Dewpoint Depression Visibility Wind Speed Wind Dir Waves Ship Positions

Wilson Gaeta

Last reported at 2015-Aug-27 19:30 UTC. Time now 2015-Aug-28 07:34 UTC.
Position N 59°38' E 010°25'.

Length 88 m; draft 5.6 m.

Type: Cargo ship. MMSI: 314237000.

Date/timePositionNaut miles runAvg speedWind from/ knotsBaromVisibWave heightAir tempDewpointWater temp
2015-Aug-27 19:30N 59°38' E 010°25'8 8.6
2015-Aug-27 18:33N 59°30' E 010°26'1010.0
2015-Aug-27 17:33N 59°21' E 010°35'1110.6
2015-Aug-27 16:33N 59°11' E 010°39'9 8.7
2015-Aug-27 15:33N 59°03' E 010°34'8 8.1
2015-Aug-27 14:33N 58°55' E 010°29'325 9.8
2015-Aug-26 05:28N 54°17' E 005°20'9 9.6
2015-Aug-26 04:33N 54°10' E 005°12'9 9.4
2015-Aug-26 03:33N 54°01' E 005°06'10 9.5
2015-Aug-26 02:33N 53°52' E 005°00'59 9.8
2015-Aug-25 20:32N 52°58' E 004°20'13 8.7
2015-Aug-25 19:05N 52°47' E 004°09'88 9.3
2015-Aug-25 09:32N 51°41' E 002°33'1010.6
2015-Aug-25 08:33N 51°33' E 002°22'1010.4
2015-Aug-25 07:33N 51°25' E 002°13'1010.3
2015-Aug-25 06:34N 51°16' E 002°05'1010.3
2015-Aug-25 05:33N 51°10' E 001°52'1010.0
2015-Aug-25 04:34N 51°03' E 001°41'10 9.6
2015-Aug-25 03:33N 50°55' E 001°31'9 8.7
2015-Aug-25 02:33N 50°47' E 001°25'  
2015-Aug-21 00:21N 41°12' W 008°41'0 0.0
2015-Aug-20 23:33N 41°12' W 008°41'0 0.0
2015-Aug-20 22:15N 41°12' W 008°41'0 0.0
2015-Aug-20 21:27N 41°12' W 008°41'0 0.0
2015-Aug-20 20:09N 41°12' W 008°41'0 0.0
2015-Aug-20 16:33N 41°12' W 008°41'0 0.0
2015-Aug-20 15:21N 41°12' W 008°41'0 0.0
2015-Aug-20 09:15N 41°12' W 008°41'0 0.0
2015-Aug-20 08:27N 41°12' W 008°41'0 0.0
2015-Aug-20 07:33N 41°12' W 008°41'0 0.0
2015-Aug-20 06:33N 41°12' W 008°41'0 0.0
2015-Aug-20 05:33N 41°12' W 008°41'0 0.0
2015-Aug-20 04:33N 41°12' W 008°41'0 0.0
2015-Aug-20 02:15N 41°12' W 008°41'0 0.0
2015-Aug-20 01:33N 41°12' W 008°41'0 0.0
2015-Aug-20 00:33N 41°12' W 008°41'0 0.0
2015-Aug-19 23:33N 41°12' W 008°41'0 0.0
2015-Aug-19 22:33N 41°12' W 008°41'10 5.2
2015-Aug-19 20:33N 41°13' W 008°55'9 8.9
2015-Aug-19 19:33N 41°19' W 009°04'9 9.1
2015-Aug-19 18:33N 41°27' W 009°11'10 9.6
2015-Aug-19 17:33N 41°35' W 009°16'  

Dump ship's entire track history